createdAt,value
2016-03-01T00:00:15.794Z,0
2016-03-01T00:01:15.858Z,0
2016-03-01T00:02:15.893Z,0
2016-03-01T00:03:15.927Z,0
2016-03-01T00:04:16.023Z,0
2016-03-01T00:05:16.058Z,0
2016-03-01T00:06:16.091Z,0
2016-03-01T00:07:16.234Z,0
2016-03-01T00:08:16.221Z,0
2016-03-01T00:09:16.240Z,0
2016-03-01T00:10:16.351Z,0
2016-03-01T00:11:16.698Z,0
2016-03-01T00:12:16.404Z,0
2016-03-01T00:13:16.470Z,0
2016-03-01T00:14:16.534Z,0
2016-03-01T00:15:16.553Z,0
2016-03-01T00:16:16.633Z,0
2016-03-01T00:17:16.715Z,0
2016-03-01T00:18:16.717Z,0
2016-03-01T00:19:16.751Z,0
2016-03-01T00:20:16.909Z,0
2016-03-01T00:21:16.929Z,0
2016-03-01T00:22:16.915Z,0
2016-03-01T00:23:16.997Z,0
2016-03-01T00:24:17.015Z,0
2016-03-01T00:25:17.127Z,0
2016-03-01T00:26:17.176Z,0
2016-03-01T00:27:17.163Z,0
2016-03-01T00:28:17.275Z,0
2016-03-01T00:29:17.308Z,0
2016-03-01T00:30:17.346Z,0
2016-03-01T00:31:17.286Z,0
2016-03-01T00:32:17.179Z,0
2016-03-01T00:33:17.510Z,0
2016-03-01T00:34:17.575Z,0
2016-03-01T00:35:17.625Z,0
2016-03-01T00:36:17.659Z,0
2016-03-01T00:37:17.693Z,0
2016-03-01T00:38:17.743Z,0
2016-03-01T00:39:17.823Z,0
2016-03-01T00:40:17.873Z,0
2016-03-01T00:41:17.954Z,0
2016-03-01T00:42:17.972Z,0
2016-03-01T00:43:18.037Z,0
2016-03-01T00:44:18.072Z,0
2016-03-01T00:45:18.105Z,0
2016-03-01T00:46:18.093Z,0
2016-03-01T00:47:18.188Z,0
2016-03-01T00:48:18.254Z,0
2016-03-01T00:49:18.303Z,0
2016-03-01T00:50:18.384Z,0
2016-03-01T00:51:18.434Z,0
2016-03-01T00:52:18.502Z,0
2016-03-01T00:53:18.552Z,0
2016-03-01T00:54:18.633Z,0
2016-03-01T00:55:18.620Z,0
2016-03-01T00:56:18.670Z,0
2016-03-01T00:57:18.610Z,0
2016-03-01T00:58:18.816Z,0
2016-03-01T00:59:18.819Z,0
2016-03-01T01:00:18.759Z,0
2016-03-01T01:01:18.948Z,0
2016-03-01T01:02:19.062Z,0
2016-03-01T01:03:19.018Z,0
2016-03-01T01:04:19.098Z,0
2016-03-01T01:05:19.210Z,0
2016-03-01T01:06:19.025Z,0
2016-03-01T01:07:19.231Z,0
2016-03-01T01:08:19.328Z,0
2016-03-01T01:09:19.362Z,0
2016-03-01T01:10:19.442Z,0
2016-03-01T01:11:19.476Z,0
2016-03-01T01:12:19.509Z,0
2016-03-01T01:13:19.559Z,0
2016-03-01T01:14:19.608Z,0
2016-03-01T01:15:19.471Z,0
2016-03-01T01:16:19.755Z,0
2016-03-01T01:17:19.758Z,0
2016-03-01T01:18:19.791Z,0
2016-03-01T01:19:19.903Z,0
2016-03-01T01:20:19.937Z,0
2016-03-01T01:21:19.956Z,0
2016-03-01T01:22:20.037Z,0
2016-03-01T01:23:20.086Z,0
2016-03-01T01:24:20.121Z,0
2016-03-01T01:25:20.216Z,0
2016-03-01T01:26:20.251Z,0
2016-03-01T01:27:20.269Z,0
2016-03-01T01:28:20.334Z,0
2016-03-01T01:29:20.368Z,0
2016-03-01T01:30:20.448Z,0
2016-03-01T01:31:20.498Z,0
2016-03-01T01:32:20.501Z,0
2016-03-01T01:33:20.582Z,0
2016-03-01T01:34:20.648Z,0
2016-03-01T01:35:20.665Z,0
2016-03-01T01:36:20.731Z,0
2016-03-01T01:37:20.811Z,0
2016-03-01T01:38:20.830Z,0
2016-03-01T01:39:20.879Z,0
2016-03-01T01:40:20.960Z,0
2016-03-01T01:41:20.995Z,0
2016-03-01T01:42:21.059Z,0
2016-03-01T01:43:21.093Z,0
2016-03-01T01:44:21.142Z,0
2016-03-01T01:45:21.223Z,0
2016-03-01T01:46:21.242Z,0
2016-03-01T01:47:21.308Z,0
2016-03-01T01:48:21.372Z,0
2016-03-01T01:49:21.406Z,0
2016-03-01T01:50:21.299Z,0
2016-03-01T01:51:21.536Z,0
2016-03-01T01:52:21.571Z,0
2016-03-01T01:53:21.620Z,0
2016-03-01T01:54:21.685Z,0
2016-03-01T01:55:21.750Z,0
2016-03-01T01:56:21.752Z,0
2016-03-01T01:57:21.819Z,0
2016-03-01T01:58:21.899Z,0
2016-03-01T01:59:21.918Z,0
2016-03-01T02:00:21.967Z,0
2016-03-01T02:01:22.048Z,0
2016-03-01T02:02:22.082Z,0
2016-03-01T02:03:22.116Z,0
2016-03-01T02:04:22.212Z,0
2016-03-01T02:05:22.090Z,0
2016-03-01T02:06:22.343Z,0
2016-03-01T02:07:22.315Z,0
2016-03-01T02:08:22.379Z,0
2016-03-01T02:09:22.476Z,0
2016-03-01T02:10:22.478Z,0
2016-03-01T02:11:22.528Z,0
2016-03-01T02:12:22.625Z,0
2016-03-01T02:13:22.628Z,0
2016-03-01T02:14:22.692Z,0
2016-03-01T02:15:22.773Z,0
2016-03-01T02:16:22.838Z,0
2016-03-01T02:17:22.825Z,0
2016-03-01T02:18:22.906Z,0
2016-03-01T02:19:22.939Z,0
2016-03-01T02:20:24.396Z,0
2016-03-01T02:21:22.911Z,0
2016-03-01T02:22:23.458Z,0
2016-03-01T02:23:23.839Z,0
2016-03-01T02:24:24.492Z,0
2016-03-01T02:25:23.354Z,0
2016-03-01T02:26:23.358Z,0
2016-03-01T02:27:23.375Z,0
2016-03-01T02:28:23.910Z,0
2016-03-01T02:29:23.460Z,0
2016-03-01T02:30:23.541Z,0
2016-03-01T02:31:23.433Z,0
2016-03-01T02:32:23.624Z,0
2016-03-01T02:33:23.704Z,0
2016-03-01T02:34:23.723Z,0
2016-03-01T02:35:23.788Z,0
2016-03-01T02:36:23.837Z,0
2016-03-01T02:37:23.668Z,0
2016-03-01T02:38:23.889Z,0
2016-03-01T02:39:23.924Z,0
2016-03-01T02:40:23.817Z,0
2016-03-01T02:41:24.070Z,0
2016-03-01T02:42:24.073Z,0
2016-03-01T02:43:24.137Z,0
2016-03-01T02:44:24.218Z,0
2016-03-01T02:45:24.236Z,0
2016-03-01T02:46:24.301Z,0
2016-03-01T02:47:24.336Z,0
2016-03-01T02:48:24.386Z,0
2016-03-01T02:49:24.434Z,0
2016-03-01T02:50:24.375Z,0
2016-03-01T02:51:24.597Z,0
2016-03-01T02:52:24.583Z,0
2016-03-01T02:53:24.711Z,0
2016-03-01T02:54:24.698Z,0
2016-03-01T02:55:24.747Z,0
2016-03-01T02:56:24.813Z,0
2016-03-01T02:57:24.863Z,0
2016-03-01T02:58:24.928Z,0
2016-03-01T02:59:24.961Z,0
2016-03-01T03:00:25.043Z,0
2016-03-01T03:01:25.060Z,0
2016-03-01T03:02:25.110Z,0
2016-03-01T03:03:25.160Z,0
2016-03-01T03:04:25.194Z,0
2016-03-01T03:05:25.274Z,0
2016-03-01T03:06:25.324Z,0
2016-03-01T03:07:25.358Z,0
2016-03-01T03:08:25.440Z,0
2016-03-01T03:09:25.457Z,0
2016-03-01T03:10:25.523Z,0
2016-03-01T03:11:25.572Z,0
2016-03-01T03:12:25.637Z,0
2016-03-01T03:13:25.687Z,0
2016-03-01T03:14:25.736Z,0
2016-03-01T03:15:25.770Z,0
2016-03-01T03:16:25.836Z,0
2016-03-01T03:17:25.884Z,0
2016-03-01T03:18:25.934Z,0
2016-03-01T03:19:26.000Z,0
2016-03-01T03:20:26.033Z,0
2016-03-01T03:21:26.067Z,0
2016-03-01T03:22:26.133Z,0
2016-03-01T03:23:26.183Z,0
2016-03-01T03:24:26.247Z,0
2016-03-01T03:25:26.298Z,0
2016-03-01T03:26:26.331Z,0
2016-03-01T03:27:26.412Z,0
2016-03-01T03:28:26.289Z,0
2016-03-01T03:29:26.511Z,0
2016-03-01T03:30:26.560Z,0
2016-03-01T03:31:26.626Z,0
2016-03-01T03:32:26.675Z,0
2016-03-01T03:33:26.725Z,0
2016-03-01T03:34:26.805Z,0
2016-03-01T03:35:26.824Z,0
2016-03-01T03:36:26.874Z,0
2016-03-01T03:37:26.938Z,0
2016-03-01T03:38:26.974Z,0
2016-03-01T03:39:27.038Z,0
2016-03-01T03:40:27.088Z,0
2016-03-01T03:41:27.121Z,0
2016-03-01T03:42:27.202Z,0
2016-03-01T03:43:27.221Z,0
2016-03-01T03:44:27.271Z,0
2016-03-01T03:45:27.351Z,0
2016-03-01T03:46:27.229Z,0
2016-03-01T03:47:27.497Z,0
2016-03-01T03:48:27.484Z,0
2016-03-01T03:49:27.549Z,0
2016-03-01T03:50:27.631Z,0
2016-03-01T03:51:27.617Z,0
2016-03-01T03:52:27.698Z,0
2016-03-01T03:53:27.747Z,0
2016-03-01T03:54:27.781Z,0
2016-03-01T03:55:27.861Z,0
2016-03-01T03:56:27.897Z,0
2016-03-01T03:57:27.947Z,0
2016-03-01T03:58:28.058Z,0
2016-03-01T03:59:28.044Z,0
2016-03-01T04:00:28.110Z,0
2016-03-01T04:01:28.160Z,0
2016-03-01T04:02:28.194Z,0
2016-03-01T04:03:28.244Z,0
2016-03-01T04:04:28.308Z,0
2016-03-01T04:05:28.124Z,0
2016-03-01T04:06:28.282Z,0
2016-03-01T04:07:28.457Z,0
2016-03-01T04:08:28.537Z,0
2016-03-01T04:09:28.604Z,0
2016-03-01T04:10:30.288Z,0
2016-03-01T04:11:28.666Z,0
2016-03-01T04:12:28.716Z,0
2016-03-01T04:13:28.765Z,0
2016-03-01T04:14:28.065Z,0
2016-03-01T04:15:28.896Z,0
2016-03-01T04:16:28.773Z,0
2016-03-01T04:17:28.963Z,0
2016-03-01T04:18:29.045Z,0
2016-03-01T04:19:29.062Z,0
2016-03-01T04:20:28.972Z,0
2016-03-01T04:21:29.193Z,0
2016-03-01T04:22:29.227Z,0
2016-03-01T04:23:29.292Z,0
2016-03-01T04:24:29.326Z,0
2016-03-01T04:25:29.407Z,0
2016-03-01T04:26:29.442Z,0
2016-03-01T04:27:29.475Z,0
2016-03-01T04:28:29.525Z,0
2016-03-01T04:29:29.605Z,0
2016-03-01T04:30:29.670Z,0
2016-03-01T04:31:29.751Z,0
2016-03-01T04:32:29.739Z,0
2016-03-01T04:33:29.789Z,0
2016-03-01T04:34:29.853Z,0
2016-03-01T04:35:29.887Z,0
2016-03-01T04:36:29.811Z,0
2016-03-01T04:37:30.064Z,0
2016-03-01T04:38:30.036Z,0
2016-03-01T04:39:30.101Z,0
2016-03-01T04:40:30.166Z,0
2016-03-01T04:41:30.200Z,0
2016-03-01T04:42:30.265Z,0
2016-03-01T04:43:30.299Z,0
2016-03-01T04:44:30.349Z,0
2016-03-01T04:45:30.461Z,0
2016-03-01T04:46:30.495Z,0
2016-03-01T04:47:30.513Z,0
2016-03-01T04:48:30.578Z,0
2016-03-01T04:49:30.596Z,0
2016-03-01T04:50:30.661Z,0
2016-03-01T04:51:30.759Z,0
2016-03-01T04:52:30.792Z,0
2016-03-01T04:53:30.826Z,0
2016-03-01T04:54:30.937Z,0
2016-03-01T04:55:30.909Z,0
2016-03-01T04:56:30.975Z,0
2016-03-01T04:57:31.025Z,0
2016-03-01T04:58:31.074Z,0
2016-03-01T04:59:31.123Z,0
2016-03-01T05:00:31.189Z,0
2016-03-01T05:01:31.222Z,0
2016-03-01T05:02:31.319Z,0
2016-03-01T05:03:31.321Z,0
2016-03-01T05:04:31.372Z,0
2016-03-01T05:05:31.436Z,0
2016-03-01T05:06:31.470Z,0
2016-03-01T05:07:31.520Z,0
2016-03-01T05:08:31.616Z,0
2016-03-01T05:09:31.635Z,0
2016-03-01T05:10:31.684Z,0
2016-03-01T05:11:31.749Z,0
2016-03-01T05:12:31.783Z,0
2016-03-01T05:13:31.849Z,0
2016-03-01T05:14:31.913Z,0
2016-03-01T05:15:31.932Z,0
2016-03-01T05:16:32.044Z,0
2016-03-01T05:17:31.360Z,0
2016-03-01T05:18:32.111Z,0
2016-03-01T05:19:32.134Z,0
2016-03-01T05:20:32.234Z,0
2016-03-01T05:21:32.226Z,0
2016-03-01T05:22:32.250Z,0
2016-03-01T05:23:32.320Z,0
2016-03-01T05:24:32.333Z,0
2016-03-01T05:25:32.394Z,0
2016-03-01T05:26:32.174Z,0
2016-03-01T05:27:32.470Z,0
2016-03-01T05:28:32.531Z,0
2016-03-01T05:29:32.564Z,0
2016-03-01T05:30:32.627Z,0
2016-03-01T05:31:32.706Z,0
2016-03-01T05:32:32.723Z,0
2016-03-01T05:33:32.802Z,0
2016-03-01T05:34:32.820Z,0
2016-03-01T05:35:32.885Z,0
2016-03-01T05:36:32.919Z,0
2016-03-01T05:37:32.967Z,0
2016-03-01T05:38:33.032Z,0
2016-03-01T05:39:33.065Z,0
2016-03-01T05:40:33.163Z,0
2016-03-01T05:41:33.165Z,0
2016-03-01T05:42:33.214Z,0
2016-03-01T05:43:33.310Z,0
2016-03-01T05:44:33.328Z,0
2016-03-01T05:45:33.378Z,0
2016-03-01T05:46:33.459Z,0
2016-03-01T05:47:33.508Z,0
2016-03-01T05:48:33.574Z,0
2016-03-01T05:49:33.591Z,0
2016-03-01T05:50:33.641Z,0
2016-03-01T05:51:33.706Z,0
2016-03-01T05:52:33.740Z,0
2016-03-01T05:53:33.790Z,0
2016-03-01T05:54:33.855Z,0
2016-03-01T05:55:33.952Z,0
2016-03-01T05:56:33.985Z,0
2016-03-01T05:57:33.987Z,0
2016-03-01T05:58:34.054Z,0
2016-03-01T05:59:34.087Z,0
2016-03-01T06:00:34.137Z,0
2016-03-01T06:01:34.187Z,0
2016-03-01T06:02:34.236Z,0
2016-03-01T06:03:34.301Z,0
2016-03-01T06:04:34.351Z,0
2016-03-01T06:05:34.415Z,0
2016-03-01T06:06:34.465Z,0
2016-03-01T06:07:34.484Z,0
2016-03-01T06:08:34.548Z,0
2016-03-01T06:09:34.630Z,0
2016-03-01T06:10:34.710Z,0
2016-03-01T06:11:34.729Z,0
2016-03-01T06:12:34.747Z,0
2016-03-01T06:13:34.812Z,0
2016-03-01T06:14:34.862Z,0
2016-03-01T06:15:34.942Z,0
2016-03-01T06:16:34.977Z,0
2016-03-01T06:17:35.010Z,0
2016-03-01T06:18:35.091Z,0
2016-03-01T06:19:35.125Z,0
2016-03-01T06:20:35.175Z,0
2016-03-01T06:21:35.224Z,0
2016-03-01T06:22:35.274Z,0
2016-03-01T06:23:35.323Z,0
2016-03-01T06:24:35.374Z,0
2016-03-01T06:25:35.423Z,0
2016-03-01T06:26:35.472Z,0
2016-03-01T06:27:35.554Z,0
2016-03-01T06:28:35.587Z,0
2016-03-01T06:29:35.652Z,0
2016-03-01T06:30:35.687Z,0
2016-03-01T06:31:35.720Z,0
2016-03-01T06:32:35.785Z,0
2016-03-01T06:33:35.851Z,0
2016-03-01T06:34:35.884Z,0
2016-03-01T06:35:35.918Z,0
2016-03-01T06:36:35.983Z,0
2016-03-01T06:37:36.034Z,0
2016-03-01T06:38:36.083Z,0
2016-03-01T06:39:36.195Z,0
2016-03-01T06:40:36.213Z,0
2016-03-01T06:41:36.231Z,0
2016-03-01T06:42:36.281Z,0
2016-03-01T06:43:36.347Z,0
2016-03-01T06:44:36.442Z,0
2016-03-01T06:45:36.461Z,0
2016-03-01T06:46:36.495Z,0
2016-03-01T06:47:36.544Z,0
2016-03-01T06:48:36.641Z,0
2016-03-01T06:49:36.658Z,0
2016-03-01T06:50:36.693Z,0
2016-03-01T06:51:36.743Z,0
2016-03-01T06:52:36.823Z,0
2016-03-01T06:53:36.857Z,0
2016-03-01T06:54:36.922Z,0
2016-03-01T06:55:36.941Z,0
2016-03-01T06:56:36.850Z,0
2016-03-01T06:57:37.055Z,0
2016-03-01T06:58:37.121Z,0
2016-03-01T06:59:37.155Z,0
2016-03-01T07:00:37.204Z,0
2016-03-01T07:01:37.254Z,0
2016-03-01T07:02:37.304Z,0
2016-03-01T07:03:37.369Z,0
2016-03-01T07:04:37.418Z,0
2016-03-01T07:05:37.484Z,0
2016-03-01T07:06:37.517Z,0
2016-03-01T07:07:37.567Z,0
2016-03-01T07:08:37.617Z,0
2016-03-01T07:09:37.682Z,0
2016-03-01T07:10:37.747Z,0
2016-03-01T07:11:37.781Z,0
2016-03-01T07:12:37.814Z,0
2016-03-01T07:13:37.849Z,0
2016-03-01T07:14:37.945Z,0
2016-03-01T07:15:37.979Z,0
2016-03-01T07:16:38.028Z,0
2016-03-01T07:17:38.063Z,0
2016-03-01T07:18:38.159Z,0
2016-03-01T07:19:38.177Z,0
2016-03-01T07:20:38.227Z,0
2016-03-01T07:21:38.277Z,0
2016-03-01T07:22:38.342Z,0
2016-03-01T07:23:38.375Z,0
2016-03-01T07:24:38.441Z,0
2016-03-01T07:25:38.552Z,0
2016-03-01T07:26:38.541Z,0
2016-03-01T07:27:38.590Z,0
2016-03-01T07:28:38.639Z,0
2016-03-01T07:29:38.688Z,0
2016-03-01T07:30:38.738Z,0
2016-03-01T07:31:38.803Z,0
2016-03-01T07:32:38.837Z,0
2016-03-01T07:33:38.949Z,0
2016-03-01T07:34:38.937Z,0
2016-03-01T07:35:39.064Z,0
2016-03-01T07:36:39.082Z,0
2016-03-01T07:37:39.101Z,0
2016-03-01T07:38:39.150Z,0
2016-03-01T07:39:39.231Z,5
2016-03-01T07:40:39.250Z,5
2016-03-01T07:41:39.284Z,5
2016-03-01T07:42:39.427Z,5
2016-03-01T07:43:39.383Z,5
2016-03-01T07:44:39.447Z,5
2016-03-01T07:45:39.497Z,5
2016-03-01T07:46:39.578Z,10
2016-03-01T07:47:39.612Z,15
2016-03-01T07:48:39.631Z,20
2016-03-01T07:49:39.742Z,25
2016-03-01T07:50:39.744Z,25
2016-03-01T07:51:39.811Z,35
2016-03-01T07:52:39.844Z,35
2016-03-01T07:53:39.910Z,40
2016-03-01T07:54:39.943Z,40
2016-03-01T07:55:39.274Z,40
2016-03-01T07:56:40.043Z,40
2016-03-01T07:57:40.076Z,40
2016-03-01T07:58:40.158Z,40
2016-03-01T07:59:40.238Z,35
2016-03-01T08:00:40.240Z,35
2016-03-01T08:01:40.149Z,35
2016-03-01T08:02:40.387Z,35
2016-03-01T08:03:40.390Z,35
2016-03-01T08:04:39.689Z,35
2016-03-01T08:05:40.488Z,35
2016-03-01T08:06:40.570Z,35
2016-03-01T08:07:40.415Z,30
2016-03-01T08:08:40.668Z,30
2016-03-01T08:09:40.687Z,30
2016-03-01T08:10:40.737Z,25
2016-03-01T08:11:40.801Z,25
2016-03-01T08:12:40.836Z,25
2016-03-01T08:13:40.932Z,20
2016-03-01T08:14:40.966Z,20
2016-03-01T08:15:41.031Z,20
2016-03-01T08:16:41.033Z,15
2016-03-01T08:17:41.100Z,15
2016-03-01T08:18:40.977Z,15
2016-03-01T08:19:41.198Z,15
2016-03-01T08:20:41.264Z,10
2016-03-01T08:21:41.281Z,10
2016-03-01T08:22:41.347Z,10
2016-03-01T08:23:41.411Z,10
2016-03-01T08:24:41.461Z,10
2016-03-01T08:25:41.496Z,10
2016-03-01T08:26:41.560Z,10
2016-03-01T08:27:41.610Z,10
2016-03-01T08:28:41.675Z,10
2016-03-01T08:29:41.724Z,10
2016-03-01T08:30:41.743Z,10
2016-03-01T08:31:41.902Z,10
2016-03-01T08:32:41.858Z,10
2016-03-01T08:33:41.907Z,10
2016-03-01T08:34:41.957Z,10
2016-03-01T08:35:42.023Z,10
2016-03-01T08:36:42.057Z,10
2016-03-01T08:37:42.121Z,10
2016-03-01T08:38:42.201Z,10
2016-03-01T08:39:42.237Z,10
2016-03-01T08:40:42.301Z,10
2016-03-01T08:41:42.304Z,10
2016-03-01T08:42:42.385Z,10
2016-03-01T08:43:42.481Z,10
2016-03-01T08:44:42.484Z,10
2016-03-01T08:45:42.533Z,10
2016-03-01T08:46:42.568Z,10
2016-03-01T08:47:42.617Z,10
2016-03-01T08:48:42.666Z,5
2016-03-01T08:49:42.731Z,10
2016-03-01T08:50:42.781Z,10
2016-03-01T08:51:42.831Z,10
2016-03-01T08:52:42.865Z,5
2016-03-01T08:53:42.931Z,10
2016-03-01T08:54:42.995Z,10
2016-03-01T08:55:43.201Z,10
2016-03-01T08:56:43.095Z,10
2016-03-01T08:57:43.113Z,10
2016-03-01T08:58:43.178Z,10
2016-03-01T08:59:43.243Z,10
2016-03-01T09:00:43.293Z,10
2016-03-01T09:01:43.343Z,10
2016-03-01T09:02:43.376Z,10
2016-03-01T09:03:43.426Z,10
2016-03-01T09:04:43.476Z,10
2016-03-01T09:05:43.540Z,10
2016-03-01T09:06:43.590Z,10
2016-03-01T09:07:42.890Z,10
2016-03-01T09:08:43.673Z,10
2016-03-01T09:09:43.739Z,10
2016-03-01T09:10:43.787Z,5
2016-03-01T09:11:43.823Z,5
2016-03-01T09:12:43.934Z,5
2016-03-01T09:13:43.937Z,5
2016-03-01T09:14:43.971Z,5
2016-03-01T09:15:44.020Z,5
2016-03-01T09:16:44.101Z,5
2016-03-01T09:17:44.119Z,5
2016-03-01T09:18:44.170Z,5
2016-03-01T09:19:44.219Z,5
2016-03-01T09:20:44.284Z,5
2016-03-01T09:21:44.302Z,5
2016-03-01T09:22:44.367Z,5
2016-03-01T09:23:44.417Z,5
2016-03-01T09:24:44.466Z,5
2016-03-01T09:25:44.517Z,5
2016-03-01T09:26:44.566Z,5
2016-03-01T09:27:44.630Z,5
2016-03-01T09:28:44.665Z,5
2016-03-01T09:29:44.699Z,5
2016-03-01T09:30:44.749Z,5
2016-03-01T09:31:44.829Z,5
2016-03-01T09:32:44.847Z,5
2016-03-01T09:33:44.913Z,5
2016-03-01T09:34:44.962Z,5
2016-03-01T09:35:45.012Z,5
2016-03-01T09:36:45.062Z,5
2016-03-01T09:37:45.096Z,5
2016-03-01T09:38:45.160Z,5
2016-03-01T09:39:45.210Z,5
2016-03-01T09:40:45.276Z,5
2016-03-01T09:41:45.293Z,5
2016-03-01T09:42:45.373Z,5
2016-03-01T09:43:45.486Z,5
2016-03-01T09:44:45.504Z,5
2016-03-01T09:45:45.523Z,5
2016-03-01T09:46:45.541Z,5
2016-03-01T09:47:45.607Z,5
2016-03-01T09:48:45.640Z,5
2016-03-01T09:49:45.705Z,5
2016-03-01T09:50:45.755Z,5
2016-03-01T09:51:45.789Z,5
2016-03-01T09:52:45.838Z,5
2016-03-01T09:53:45.919Z,5
2016-03-01T09:54:45.953Z,5
2016-03-01T09:55:45.988Z,5
2016-03-01T09:56:46.052Z,5
2016-03-01T09:57:46.103Z,5
2016-03-01T09:58:46.152Z,5
2016-03-01T09:59:46.217Z,5
2016-03-01T10:00:45.516Z,5
2016-03-01T10:01:46.300Z,5
2016-03-01T10:02:46.350Z,5
2016-03-01T10:03:46.384Z,5
2016-03-01T10:04:46.465Z,5
2016-03-01T10:05:46.515Z,5
2016-03-01T10:06:46.533Z,5
2016-03-01T10:07:46.770Z,5
2016-03-01T10:08:46.663Z,5
2016-03-01T10:09:46.697Z,5
2016-03-01T10:10:46.762Z,5
2016-03-01T10:11:46.859Z,5
2016-03-01T10:12:46.862Z,5
2016-03-01T10:13:46.926Z,5
2016-03-01T10:14:46.945Z,5
2016-03-01T10:15:47.009Z,0
2016-03-01T10:16:47.059Z,5
2016-03-01T10:17:47.297Z,0
2016-03-01T10:18:47.174Z,0
2016-03-01T10:19:47.209Z,5
2016-03-01T10:20:47.273Z,5
2016-03-01T10:21:47.307Z,0
2016-03-01T10:22:47.372Z,5
2016-03-01T10:23:47.422Z,5
2016-03-01T10:24:47.456Z,5
2016-03-01T10:25:47.521Z,5
2016-03-01T10:26:47.555Z,0
2016-03-01T10:27:47.605Z,0
2016-03-01T10:28:47.701Z,0
2016-03-01T10:29:47.719Z,0
2016-03-01T10:30:47.800Z,0
2016-03-01T10:31:47.803Z,5
2016-03-01T10:32:47.837Z,5
2016-03-01T10:33:47.996Z,5
2016-03-01T10:34:47.952Z,5
2016-03-01T10:35:48.001Z,5
2016-03-01T10:36:48.051Z,5
2016-03-01T10:37:48.100Z,5
2016-03-01T10:38:48.150Z,5
2016-03-01T10:39:48.199Z,5
2016-03-01T10:40:48.296Z,5
2016-03-01T10:41:48.283Z,5
2016-03-01T10:42:48.364Z,5
2016-03-01T10:43:48.413Z,5
2016-03-01T10:44:48.432Z,5
2016-03-01T10:45:48.529Z,5
2016-03-01T10:46:48.546Z,5
2016-03-01T10:47:48.673Z,5
2016-03-01T10:48:48.677Z,0
2016-03-01T10:49:48.820Z,5
2016-03-01T10:50:48.776Z,5
2016-03-01T10:51:48.810Z,5
2016-03-01T10:52:48.906Z,5
2016-03-01T10:53:48.924Z,5
2016-03-01T10:54:48.974Z,5
2016-03-01T10:55:49.024Z,5
2016-03-01T10:56:49.058Z,5
2016-03-01T10:57:49.107Z,5
2016-03-01T10:58:49.157Z,5
2016-03-01T10:59:49.222Z,5
2016-03-01T11:00:49.255Z,5
2016-03-01T11:01:49.306Z,5
2016-03-01T11:02:49.355Z,5
2016-03-01T11:03:49.405Z,5
2016-03-01T11:04:49.438Z,5
2016-03-01T11:05:49.535Z,5
2016-03-01T11:06:49.569Z,5
2016-03-01T11:07:49.665Z,0
2016-03-01T11:08:49.777Z,5
2016-03-01T11:09:50.327Z,5
2016-03-01T11:10:49.783Z,0
2016-03-01T11:11:49.832Z,0
2016-03-01T11:12:49.866Z,0
2016-03-01T11:13:50.291Z,0
2016-03-01T11:14:50.043Z,0
2016-03-01T11:15:50.093Z,0
2016-03-01T11:16:50.096Z,0
2016-03-01T11:17:50.145Z,0
2016-03-01T11:18:50.242Z,0
2016-03-01T11:19:50.291Z,0
2016-03-01T11:20:50.326Z,0
2016-03-01T11:21:50.375Z,0
2016-03-01T11:22:50.362Z,0
2016-03-01T11:23:50.427Z,0
2016-03-01T11:24:50.477Z,0
2016-03-01T11:25:50.525Z,0
2016-03-01T11:26:50.576Z,0
2016-03-01T11:27:50.610Z,0
2016-03-01T11:28:50.675Z,0
2016-03-01T11:29:50.740Z,0
2016-03-01T11:30:50.774Z,0
2016-03-01T11:31:50.824Z,0
2016-03-01T11:32:50.873Z,0
2016-03-01T11:33:50.923Z,0
2016-03-01T11:34:50.988Z,0
2016-03-01T11:35:51.021Z,0
2016-03-01T11:36:51.071Z,0
2016-03-01T11:37:51.137Z,0
2016-03-01T11:38:51.186Z,0
2016-03-01T11:39:51.235Z,0
2016-03-01T11:40:51.285Z,0
2016-03-01T11:41:51.335Z,0
2016-03-01T11:42:51.384Z,0
2016-03-01T11:43:51.450Z,0
2016-03-01T11:44:51.484Z,0
2016-03-01T11:45:51.534Z,0
2016-03-01T11:46:51.582Z,0
2016-03-01T11:47:51.632Z,0
2016-03-01T11:48:51.682Z,0
2016-03-01T11:49:51.747Z,0
2016-03-01T11:50:51.781Z,0
2016-03-01T11:51:51.878Z,0
2016-03-01T11:52:51.880Z,0
2016-03-01T11:53:51.931Z,0
2016-03-01T11:54:52.011Z,0
2016-03-01T11:55:52.061Z,0
2016-03-01T11:56:52.125Z,0
2016-03-01T11:57:52.159Z,0
2016-03-01T11:58:52.208Z,0
2016-03-01T11:59:52.258Z,0
2016-03-01T12:00:52.323Z,0
2016-03-01T12:01:52.342Z,0
2016-03-01T12:02:52.391Z,0
2016-03-01T12:03:52.503Z,0
2016-03-01T12:04:52.397Z,0
2016-03-01T12:05:52.618Z,0
2016-03-01T12:06:52.606Z,0
2016-03-01T12:07:52.687Z,0
2016-03-01T12:08:52.736Z,0
2016-03-01T12:09:52.755Z,0
2016-03-01T12:10:52.851Z,0
2016-03-01T12:11:52.839Z,0
2016-03-01T12:12:52.888Z,0
2016-03-01T12:13:52.938Z,0
2016-03-01T12:14:53.019Z,0
2016-03-01T12:15:53.052Z,0
2016-03-01T12:16:53.180Z,0
2016-03-01T12:17:53.152Z,0
2016-03-01T12:18:53.216Z,0
2016-03-01T12:19:53.251Z,0
2016-03-01T12:20:53.284Z,0
2016-03-01T12:21:53.350Z,0
2016-03-01T12:22:53.399Z,0
2016-03-01T12:23:53.449Z,0
2016-03-01T12:24:53.343Z,0
2016-03-01T12:25:53.532Z,0
2016-03-01T12:26:53.612Z,0
2016-03-01T12:27:53.647Z,0
2016-03-01T12:28:53.696Z,0
2016-03-01T12:29:53.745Z,0
2016-03-01T12:30:53.842Z,0
2016-03-01T12:31:53.861Z,0
2016-03-01T12:32:53.895Z,0
2016-03-01T12:33:53.960Z,0
2016-03-01T12:34:54.009Z,0
2016-03-01T12:35:54.059Z,0
2016-03-01T12:36:54.108Z,0
2016-03-01T12:37:54.175Z,0
2016-03-01T12:38:54.223Z,0
2016-03-01T12:39:54.241Z,0
2016-03-01T12:40:54.308Z,0
2016-03-01T12:41:54.372Z,0
2016-03-01T12:42:54.406Z,0
2016-03-01T12:43:54.472Z,0
2016-03-01T12:44:54.522Z,0
2016-03-01T12:45:54.571Z,0
2016-03-01T12:46:54.464Z,0
2016-03-01T12:47:54.655Z,0
2016-03-01T12:48:54.719Z,0
2016-03-01T12:49:54.769Z,0
2016-03-01T12:50:54.834Z,0
2016-03-01T12:51:54.868Z,0
2016-03-01T12:52:54.918Z,0
2016-03-01T12:53:54.998Z,0
2016-03-01T12:54:55.016Z,0
2016-03-01T12:55:55.066Z,0
2016-03-01T12:56:55.147Z,0
2016-03-01T12:57:55.165Z,0
2016-03-01T12:58:55.261Z,0
2016-03-01T12:59:55.265Z,0
2016-03-01T13:00:55.361Z,0
2016-03-01T13:01:55.364Z,0
2016-03-01T13:02:55.304Z,0
2016-03-01T13:03:55.462Z,0
2016-03-01T13:04:55.543Z,0
2016-03-01T13:05:55.593Z,0
2016-03-01T13:06:55.627Z,0
2016-03-01T13:07:55.661Z,0
2016-03-01T13:08:55.726Z,0
2016-03-01T13:09:55.761Z,0
2016-03-01T13:10:55.825Z,0
2016-03-01T13:11:55.875Z,0
2016-03-01T13:12:55.908Z,0
2016-03-01T13:13:55.818Z,0
2016-03-01T13:14:56.025Z,0
2016-03-01T13:15:56.089Z,0
2016-03-01T13:16:56.139Z,0
2016-03-01T13:17:56.172Z,0
2016-03-01T13:18:56.253Z,0
2016-03-01T13:19:56.287Z,0
2016-03-01T13:20:56.322Z,0
2016-03-01T13:21:56.355Z,0
2016-03-01T13:22:56.560Z,0
2016-03-01T13:23:56.469Z,0
2016-03-01T13:24:56.910Z,0
2016-03-01T13:25:56.569Z,0
2016-03-01T13:26:56.665Z,0
2016-03-01T13:27:56.668Z,0
2016-03-01T13:28:56.701Z,0
2016-03-01T13:29:56.768Z,0
2016-03-01T13:30:56.817Z,0
2016-03-01T13:31:56.850Z,0
2016-03-01T13:32:56.916Z,0
2016-03-01T13:33:56.965Z,0
2016-03-01T13:34:57.031Z,0
2016-03-01T13:35:57.065Z,0
2016-03-01T13:36:57.114Z,0
2016-03-01T13:37:57.164Z,0
2016-03-01T13:38:57.228Z,0
2016-03-01T13:39:57.263Z,0
2016-03-01T13:40:57.312Z,0
2016-03-01T13:41:57.362Z,0
2016-03-01T13:42:57.417Z,0
2016-03-01T13:43:57.466Z,0
2016-03-01T13:44:57.563Z,0
2016-03-01T13:45:57.565Z,0
2016-03-01T13:46:57.646Z,0
2016-03-01T13:47:57.663Z,0
2016-03-01T13:48:57.761Z,0
2016-03-01T13:49:57.763Z,0
2016-03-01T13:50:57.813Z,0
2016-03-01T13:51:57.878Z,0
2016-03-01T13:52:57.974Z,0
2016-03-01T13:53:57.977Z,0
2016-03-01T13:54:58.011Z,0
2016-03-01T13:55:58.092Z,0
2016-03-01T13:56:58.110Z,0
2016-03-01T13:57:58.207Z,0
2016-03-01T13:58:58.240Z,0
2016-03-01T13:59:58.321Z,0
2016-03-01T14:00:58.340Z,0
2016-03-01T14:01:58.359Z,0
2016-03-01T14:02:58.440Z,0
2016-03-01T14:03:58.317Z,0
2016-03-01T14:04:58.506Z,0
2016-03-01T14:05:58.587Z,0
2016-03-01T14:06:58.606Z,0
2016-03-01T14:07:58.687Z,0
2016-03-01T14:08:58.705Z,0
2016-03-01T14:09:59.255Z,0
2016-03-01T14:10:58.819Z,0
2016-03-01T14:11:58.853Z,0
2016-03-01T14:12:58.919Z,0
2016-03-01T14:13:58.969Z,0
2016-03-01T14:14:59.050Z,0
2016-03-01T14:15:59.067Z,0
2016-03-01T14:16:59.102Z,0
2016-03-01T14:17:59.166Z,0
2016-03-01T14:18:59.232Z,0
2016-03-01T14:19:59.282Z,0
2016-03-01T14:20:59.315Z,0
2016-03-01T14:21:59.381Z,0
2016-03-01T14:22:59.416Z,0
2016-03-01T14:23:59.496Z,0
2016-03-01T14:24:59.509Z,0
2016-03-01T14:25:59.545Z,0
2016-03-01T14:26:59.582Z,0
2016-03-01T14:27:59.618Z,0
2016-03-01T14:28:59.670Z,0
2016-03-01T14:29:59.695Z,0
2016-03-01T14:30:59.755Z,0
2016-03-01T14:31:59.784Z,0
2016-03-01T14:32:59.846Z,0
2016-03-01T14:33:59.890Z,0
2016-03-01T14:34:59.921Z,0
2016-03-01T14:35:59.985Z,0
2016-03-01T14:37:00.047Z,0
2016-03-01T14:38:00.079Z,0
2016-03-01T14:39:00.112Z,0
2016-03-01T14:40:00.159Z,0
2016-03-01T14:41:00.240Z,0
2016-03-01T14:42:00.288Z,0
2016-03-01T14:43:00.354Z,0
2016-03-01T14:44:00.418Z,0
2016-03-01T14:45:00.421Z,0